Aviation Digital Data Service (ADDS)

Output produced by METARs form (0203 UTC 22 February 2019)
found at http://www.aviationweather.gov/metar/data/
 
METAR text: RJOP 210610Z 36018G29KT 9999 FEW030 BKN050 10/M01 Q1021 RMK 2CU030 6SC050 A3017
Conditions at: RJOP (KOMATSUJIMA (JAS, JP) observed 0610 UTC 21 February 2019
Temperature: 10.0°C (50°F)
Dewpoint: -1.0°C (30°F) [RH = 46%]
Pressure (altimeter): 30.15 inches Hg (1021.0 mb)
Winds: from the N (360 degrees) at 21 MPH (18 knots; 9.3 m/s)
gusting to 33 MPH (29 knots; 14.9 m/s)
Visibility: 6 or more miles (10+ km)
Ceiling: 5000 feet AGL
Clouds: few clouds at 3000 feet AGL
broken clouds at 5000 feet AGL
Weather: no significant weather observed at this time